CPX769 Details

Departure: Liège Airport (EBLG)
Arrival: Indira Gandhi International Airport (VIDP) at N/A
Route: LNO MTR Z719 OSBIT UZ205 LULAR Z205 ABUDO NARKA Z650 TOMET L624 ADINA L851 ERZ W71 MUS OTKEP UM688 PEBAD UP975 SESRA M677 ITBUL M677 LOVEM M677 KURTU P321 NOLSU P307 VAXIM RASKI L639 AAE Q3 BUBNU Q1 DIPAS DIPAS5D
Notes:


Current Weather Information
EBLG 191550Z 25014KT CAVOK 21/09 Q1018 NOSIG
VIDP 191530Z 20003KT 3000 HZ FEW030 SCT100 31/25 Q1005 NOSIG